Time;durP1;ratioP1;P1;durP2;ratioP2;P2;SDS_P1;SDS_P2;PMS_P1;PMS_P2;Temp;Humidity;BMP_temperature;BMP_pressure;BME280_temperature;BME280_humidity;BME280_pressure;Samples;Min_cycle;Max_cycle;Signal;HPM_P1;HPM_P2
2024/01/20 00:01:53;;;;;;;20.77;12.57;;;1.30;99.90;;;;;;5044991;28;20037;-68
2024/01/20 00:04:19;;;;;;;20.00;12.48;;;1.40;99.90;;;;;;5029705;28;20245;-68
2024/01/20 00:06:45;;;;;;;16.23;11.48;;;1.40;99.90;;;;;;5044892;28;20135;-67
2024/01/20 00:09:11;;;;;;;19.90;12.18;;;1.40;99.90;;;;;;5029742;28;20382;-67
2024/01/20 00:11:38;;;;;;;21.60;13.13;;;1.40;99.90;;;;;;5011762;28;20060;-66
2024/01/20 00:14:04;;;;;;;20.55;12.50;;;1.40;99.90;;;;;;5029565;28;20037;-69
2024/01/20 00:16:30;;;;;;;20.50;13.32;;;1.40;99.90;;;;;;5028558;28;20095;-66
2024/01/20 00:18:56;;;;;;;26.30;13.75;;;1.40;99.90;;;;;;5029089;28;20045;-66
2024/01/20 00:21:23;;;;;;;22.40;13.40;;;1.40;99.90;;;;;;5044801;28;20057;-68
2024/01/20 00:23:49;;;;;;;21.13;13.45;;;1.40;99.90;;;;;;5045037;28;20378;-68
2024/01/20 00:26:14;;;;;;;24.05;12.40;;;1.40;99.90;;;;;;5045458;28;20451;-68
2024/01/20 00:28:40;;;;;;;22.65;12.75;;;1.30;99.90;;;;;;5029687;28;20128;-68
2024/01/20 00:31:06;;;;;;;22.67;13.55;;;1.30;99.90;;;;;;5008162;28;20084;-68
2024/01/20 00:33:31;;;;;;;24.70;13.90;;;1.30;99.90;;;;;;5007870;28;20052;-68
2024/01/20 00:35:57;;;;;;;23.40;14.27;;;1.20;99.90;;;;;;5008102;28;20049;-67
2024/01/20 00:38:25;;;;;;;19.55;12.80;;;1.30;99.90;;;;;;5024422;28;20406;-67
2024/01/20 00:40:51;;;;;;;19.10;12.95;;;1.30;99.90;;;;;;5024297;28;20050;-68
2024/01/20 00:43:17;;;;;;;25.48;13.68;;;1.30;99.90;;;;;;5009614;28;20095;-67
2024/01/20 00:45:42;;;;;;;23.27;14.48;;;1.30;99.90;;;;;;5024364;28;20383;-68
2024/01/20 00:48:08;;;;;;;23.75;13.80;;;1.40;99.90;;;;;;5024040;28;20140;-68
2024/01/20 00:50:34;;;;;;;23.38;14.23;;;1.30;99.90;;;;;;5024628;28;20046;-68
2024/01/20 00:53:00;;;;;;;22.17;14.57;;;1.30;99.90;;;;;;5009124;28;20388;-68
2024/01/20 00:55:25;;;;;;;23.23;13.80;;;1.30;99.90;;;;;;5024417;28;20045;-68
2024/01/20 00:57:51;;;;;;;22.42;13.70;;;1.40;99.90;;;;;;5023850;28;20442;-68
2024/01/20 01:00:17;;;;;;;21.50;13.55;;;1.40;99.90;;;;;;4991467;28;20050;-68
2024/01/20 01:02:43;;;;;;;23.33;14.52;;;1.30;99.90;;;;;;5007801;28;20037;-68
2024/01/20 01:05:09;;;;;;;25.88;15.13;;;1.30;99.90;;;;;;5024100;28;20050;-68
2024/01/20 01:07:36;;;;;;;25.60;14.52;;;1.30;99.90;;;;;;5009354;28;20460;-68
2024/01/20 01:10:03;;;;;;;24.98;15.50;;;1.30;99.90;;;;;;5009079;28;20446;-68
2024/01/20 01:12:29;;;;;;;23.42;13.77;;;1.20;99.90;;;;;;5007672;28;20042;-68
2024/01/20 01:14:55;;;;;;;20.88;13.45;;;1.20;99.90;;;;;;5009006;28;20096;-68
2024/01/20 01:17:21;;;;;;;20.73;13.30;;;1.10;99.90;;;;;;5009213;28;20088;-68
2024/01/20 01:19:47;;;;;;;27.67;14.85;;;1.10;99.90;;;;;;5024136;28;20442;-68
2024/01/20 01:22:13;;;;;;;28.58;15.02;;;1.10;99.90;;;;;;5023845;28;20088;-68
2024/01/20 01:24:38;;;;;;;23.33;14.80;;;1.10;99.90;;;;;;5009286;28;20044;-69
2024/01/20 01:27:05;;;;;;;28.35;14.70;;;1.10;99.90;;;;;;5025871;28;20037;-68
2024/01/20 01:29:31;;;;;;;27.90;14.90;;;1.00;99.90;;;;;;5012826;28;20190;-68
2024/01/20 01:31:57;;;;;;;25.98;15.35;;;1.00;99.90;;;;;;5012825;28;20061;-68
2024/01/20 01:34:23;;;;;;;22.05;14.98;;;1.10;99.90;;;;;;5027583;28;20474;-68
2024/01/20 01:36:49;;;;;;;25.17;14.80;;;1.00;99.90;;;;;;5026822;28;20045;-67
2024/01/20 01:39:17;;;;;;;26.23;14.90;;;1.00;99.90;;;;;;5026929;28;20057;-67
2024/01/20 01:41:43;;;;;;;20.48;14.32;;;1.10;99.90;;;;;;5026816;28;20046;-67
2024/01/20 01:44:10;;;;;;;26.70;15.40;;;1.10;99.90;;;;;;5012085;28;20054;-67
2024/01/20 01:46:36;;;;;;;26.17;15.32;;;1.10;99.90;;;;;;5011753;28;20147;-67
2024/01/20 01:49:03;;;;;;;25.00;16.58;;;1.00;99.90;;;;;;5012092;28;20071;-68
2024/01/20 01:51:30;;;;;;;30.70;16.00;;;1.10;99.90;;;;;;4993955;28;20038;-68
2024/01/20 01:53:58;;;;;;;22.60;15.63;;;1.00;99.90;;;;;;5011823;28;20390;-67
2024/01/20 01:56:23;;;;;;;24.75;16.02;;;1.00;99.90;;;;;;5011649;28;20073;-67
2024/01/20 01:58:49;;;;;;;29.08;15.85;;;1.00;99.90;;;;;;5025810;28;20102;-67
2024/01/20 02:01:15;;;;;;;27.77;16.60;;;1.00;99.90;;;;;;5011033;28;20042;-67
2024/01/20 02:03:40;;;;;;;24.38;16.20;;;0.90;99.90;;;;;;5026228;28;20612;-67
2024/01/20 02:06:06;;;;;;;27.05;16.85;;;1.00;99.90;;;;;;5011317;28;20042;-67
2024/01/20 02:08:39;;;;;;;25.27;16.73;;;1.00;99.90;;;;;;5011263;28;20133;-68
2024/01/20 02:11:05;;;;;;;24.20;16.52;;;0.90;99.90;;;;;;5011529;28;20096;-68
2024/01/20 02:13:31;;;;;;;25.58;17.15;;;1.00;99.90;;;;;;5011180;28;20041;-68
2024/01/20 02:15:57;;;;;;;29.85;17.63;;;0.90;99.90;;;;;;5026255;28;20351;-68
2024/01/20 02:18:23;;;;;;;30.58;16.75;;;1.00;99.90;;;;;;5011225;28;20048;-68
2024/01/20 02:20:49;;;;;;;27.42;17.02;;;1.00;99.90;;;;;;5026403;28;20077;-68
2024/01/20 02:23:15;;;;;;;28.02;16.92;;;0.90;99.90;;;;;;5026492;28;20382;-68
2024/01/20 02:25:41;;;;;;;26.35;17.35;;;0.90;99.90;;;;;;5009808;28;20052;-68
2024/01/20 02:28:06;;;;;;;32.97;17.95;;;1.00;99.90;;;;;;5010821;28;20037;-68
2024/01/20 02:30:32;;;;;;;31.77;17.98;;;1.00;99.90;;;;;;5011044;28;20409;-68
2024/01/20 02:32:58;;;;;;;29.35;17.55;;;0.90;99.90;;;;;;5011227;28;20437;-68
2024/01/20 02:35:23;;;;;;;28.30;18.45;;;1.10;99.90;;;;;;5011411;28;20153;-67
2024/01/20 02:37:49;;;;;;;28.75;17.48;;;1.00;99.90;;;;;;5008935;28;20448;-68
2024/01/20 02:40:15;;;;;;;28.15;17.98;;;0.90;99.90;;;;;;5025693;28;20104;-68
2024/01/20 02:42:41;;;;;;;29.02;18.17;;;0.80;99.90;;;;;;5025773;28;20046;-68
2024/01/20 02:45:07;;;;;;;31.27;18.08;;;0.80;99.90;;;;;;5010700;28;20089;-66
2024/01/20 02:47:33;;;;;;;29.60;18.38;;;0.90;99.90;;;;;;5010887;28;20065;-66
2024/01/20 02:49:58;;;;;;;26.70;16.90;;;0.80;99.90;;;;;;5025447;28;20053;-67
2024/01/20 02:52:24;;;;;;;34.00;18.30;;;0.80;99.90;;;;;;5008818;28;20408;-67
2024/01/20 02:54:50;;;;;;;26.85;18.35;;;0.80;99.90;;;;;;5010535;28;20051;-67
2024/01/20 02:57:16;;;;;;;36.03;18.35;;;0.80;99.90;;;;;;5010222;28;20164;-68
2024/01/20 02:59:42;;;;;;;31.77;18.30;;;0.80;99.90;;;;;;5010176;28;20129;-67
2024/01/20 03:02:07;;;;;;;32.60;18.83;;;0.80;99.90;;;;;;5025345;28;20267;-67
2024/01/20 03:04:33;;;;;;;30.50;19.13;;;0.70;99.90;;;;;;5025060;28;20046;-67
2024/01/20 03:06:59;;;;;;;33.38;19.23;;;0.80;99.90;;;;;;5008745;28;20049;-67
2024/01/20 03:09:24;;;;;;;35.95;18.98;;;0.70;99.90;;;;;;5009900;28;20054;-67
2024/01/20 03:11:50;;;;;;;32.63;18.70;;;0.80;99.90;;;;;;5025014;28;20049;-67
2024/01/20 03:14:16;;;;;;;29.10;18.20;;;0.70;99.90;;;;;;5009690;28;20050;-67
2024/01/20 03:16:41;;;;;;;32.10;19.10;;;0.70;99.90;;;;;;5008246;28;20048;-67
2024/01/20 03:19:07;;;;;;;32.50;19.00;;;0.70;99.90;;;;;;5024516;28;20402;-67
2024/01/20 03:21:33;;;;;;;34.97;18.13;;;0.70;99.90;;;;;;5024688;28;20124;-67
2024/01/20 03:23:59;;;;;;;31.05;18.48;;;0.70;99.90;;;;;;5009784;28;20069;-66
2024/01/20 03:26:25;;;;;;;30.10;17.42;;;0.70;99.90;;;;;;5024839;28;20038;-67
2024/01/20 03:28:51;;;;;;;35.55;18.98;;;0.70;99.90;;;;;;5024187;28;20424;-67
2024/01/20 03:31:17;;;;;;;34.05;19.55;;;0.70;99.90;;;;;;5009655;28;20049;-67
2024/01/20 03:33:43;;;;;;;37.05;20.05;;;0.70;99.90;;;;;;5024462;28;20490;-67
2024/01/20 03:36:09;;;;;;;35.40;19.05;;;0.70;99.90;;;;;;5009537;28;20118;-67
2024/01/20 03:38:35;;;;;;;33.95;19.65;;;0.70;99.90;;;;;;5024562;28;20125;-66
2024/01/20 03:41:01;;;;;;;28.70;18.67;;;0.70;99.90;;;;;;5009500;28;20490;-67
2024/01/20 03:43:26;;;;;;;30.85;18.38;;;0.70;99.90;;;;;;5009342;28;20059;-67
2024/01/20 03:45:53;;;;;;;34.60;19.50;;;0.70;99.90;;;;;;5024317;28;20501;-66
2024/01/20 03:48:19;;;;;;;31.85;18.60;;;0.70;99.90;;;;;;5009264;28;20099;-66
2024/01/20 03:50:45;;;;;;;42.03;20.05;;;0.70;99.90;;;;;;5009218;28;20140;-67
2024/01/20 03:53:10;;;;;;;40.83;18.90;;;0.60;99.90;;;;;;5009178;28;20151;-66
2024/01/20 03:55:36;;;;;;;36.17;20.17;;;0.70;99.90;;;;;;5008863;28;20505;-66
2024/01/20 03:58:02;;;;;;;38.40;20.27;;;0.50;99.90;;;;;;5023820;28;20054;-67
2024/01/20 04:00:28;;;;;;;37.88;19.25;;;0.50;99.90;;;;;;5007675;28;20482;-67
2024/01/20 04:02:54;;;;;;;36.80;19.67;;;0.60;99.90;;;;;;5024029;28;20125;-67
2024/01/20 04:05:19;;;;;;;38.45;18.98;;;0.60;99.90;;;;;;5009404;28;20391;-67
2024/01/20 04:07:46;;;;;;;35.03;19.10;;;0.50;99.90;;;;;;5008524;28;20045;-66
2024/01/20 04:10:12;;;;;;;41.97;20.27;;;0.50;99.90;;;;;;5008639;28;20033;-66
2024/01/20 04:12:39;;;;;;;41.65;21.17;;;0.40;99.90;;;;;;4990823;28;20048;-67
2024/01/20 04:15:05;;;;;;;37.78;20.60;;;0.60;99.90;;;;;;5007027;28;20045;-67
2024/01/20 04:17:31;;;;;;;37.90;19.20;;;0.50;99.90;;;;;;5023340;28;20084;-67
2024/01/20 04:19:57;;;;;;;41.83;20.42;;;0.50;99.90;;;;;;5007055;28;20061;-67
2024/01/20 04:22:23;;;;;;;39.47;19.75;;;0.60;99.90;;;;;;5008722;28;20092;-67
2024/01/20 04:24:48;;;;;;;38.38;20.10;;;0.50;99.90;;;;;;5008428;28;20136;-67
2024/01/20 04:27:14;;;;;;;41.65;20.83;;;0.50;99.90;;;;;;5006423;28;20057;-67
2024/01/20 04:29:40;;;;;;;39.35;21.52;;;0.50;99.90;;;;;;5006744;28;20054;-67
2024/01/20 04:32:05;;;;;;;44.20;19.80;;;0.50;99.90;;;;;;5008506;28;20038;-67
2024/01/20 04:34:31;;;;;;;42.67;21.27;;;0.40;99.90;;;;;;5008969;28;20041;-67
2024/01/20 04:36:57;;;;;;;42.60;21.65;;;0.40;99.90;;;;;;5008878;28;20155;-67
2024/01/20 04:39:22;;;;;;;54.28;23.83;;;0.40;99.90;;;;;;5023717;28;20050;-67
2024/01/20 04:41:48;;;;;;;43.03;22.08;;;0.40;99.90;;;;;;5023582;28;20127;-67
2024/01/20 04:44:14;;;;;;;46.80;22.20;;;0.40;99.90;;;;;;5023983;28;20084;-67
2024/01/20 04:46:39;;;;;;;47.20;21.23;;;0.40;99.90;;;;;;5023820;28;20045;-67
2024/01/20 04:49:05;;;;;;;55.78;25.02;;;0.50;99.90;;;;;;5013486;28;20134;-67
2024/01/20 04:51:30;;;;;;;47.95;22.67;;;0.40;99.90;;;;;;5028372;28;20100;-67
2024/01/20 04:53:56;;;;;;;48.60;22.45;;;0.40;99.90;;;;;;5010205;28;20115;-67
2024/01/20 04:56:22;;;;;;;49.85;22.48;;;0.40;99.90;;;;;;5042808;28;20446;-67
2024/01/20 04:58:53;;;;;;;53.15;22.90;;;0.30;99.90;;;;;;5027669;28;20069;-67
2024/01/20 05:01:19;;;;;;;50.83;23.63;;;0.30;99.90;;;;;;5042681;28;20076;-67
2024/01/20 05:03:45;;;;;;;47.65;22.55;;;0.30;99.90;;;;;;5027879;28;20450;-67
2024/01/20 05:06:11;;;;;;;50.08;22.60;;;0.40;99.90;;;;;;5027749;28;20045;-67
2024/01/20 05:08:37;;;;;;;49.70;21.98;;;0.40;99.90;;;;;;5042549;28;20056;-67
2024/01/20 05:11:02;;;;;;;52.78;23.10;;;0.40;99.90;;;;;;5027992;28;20047;-67
2024/01/20 05:13:28;;;;;;;52.08;21.98;;;0.40;99.90;;;;;;5043009;28;20050;-67
2024/01/20 05:15:54;;;;;;;50.97;22.10;;;0.40;99.90;;;;;;5043110;28;20049;-67
2024/01/20 05:18:20;;;;;;;50.95;23.48;;;0.40;99.90;;;;;;5027775;28;20037;-67
2024/01/20 05:20:46;;;;;;;51.97;23.55;;;0.30;99.90;;;;;;5026719;28;20768;-67
2024/01/20 05:23:12;;;;;;;49.38;21.67;;;0.30;99.90;;;;;;5027588;28;20060;-67
2024/01/20 05:25:38;;;;;;;53.88;22.92;;;0.20;99.90;;;;;;5028011;28;20041;-67
2024/01/20 05:28:04;;;;;;;48.08;22.33;;;0.30;99.90;;;;;;5042570;28;20077;-67
2024/01/20 05:30:30;;;;;;;54.05;23.70;;;0.30;99.90;;;;;;5042623;28;20046;-67
2024/01/20 05:32:55;;;;;;;48.22;21.40;;;0.40;99.90;;;;;;5027773;28;20088;-68
2024/01/20 05:35:21;;;;;;;51.83;22.00;;;0.40;99.90;;;;;;5027760;28;20436;-67
2024/01/20 05:37:47;;;;;;;49.08;21.17;;;0.30;99.90;;;;;;5026108;28;20356;-68
2024/01/20 05:40:13;;;;;;;49.20;23.25;;;0.30;99.90;;;;;;5027621;28;20046;-68
2024/01/20 05:42:38;;;;;;;45.88;22.85;;;0.30;99.90;;;;;;5042879;28;20041;-67
2024/01/20 05:45:08;;;;;;;56.05;22.38;;;0.20;99.90;;;;;;5027905;28;20053;-67
2024/01/20 05:47:37;;;;;;;47.65;21.85;;;0.20;99.90;;;;;;5028546;28;20076;-67
2024/01/20 05:50:03;;;;;;;49.72;21.60;;;0.20;99.90;;;;;;5042976;28;20057;-67
2024/01/20 05:52:29;;;;;;;46.33;20.58;;;0.20;99.90;;;;;;5042743;28;20083;-67
2024/01/20 05:54:55;;;;;;;44.47;21.95;;;0.20;99.90;;;;;;5042859;28;20045;-67
2024/01/20 05:57:20;;;;;;;50.45;21.73;;;0.20;99.90;;;;;;5026175;28;20061;-67
2024/01/20 05:59:46;;;;;;;49.10;21.63;;;0.30;99.90;;;;;;5027479;28;20057;-67
2024/01/20 06:02:12;;;;;;;50.72;20.83;;;0.10;99.90;;;;;;5042848;28;20049;-68
2024/01/20 06:04:37;;;;;;;49.92;21.75;;;0.20;99.90;;;;;;5009362;28;20041;-68
2024/01/20 06:07:03;;;;;;;50.88;23.38;;;0.10;99.90;;;;;;5042157;28;20056;-68
2024/01/20 06:09:29;;;;;;;49.47;21.90;;;0.20;99.90;;;;;;5009510;28;20102;-68
2024/01/20 06:11:55;;;;;;;46.88;20.60;;;0.20;99.90;;;;;;5042612;28;20041;-68
2024/01/20 06:14:20;;;;;;;54.28;21.33;;;0.20;99.90;;;;;;5029411;28;20060;-68
2024/01/20 06:16:46;;;;;;;46.08;20.30;;;0.20;99.90;;;;;;5046082;28;20049;-68
2024/01/20 06:19:13;;;;;;;64.03;21.75;;;0.10;99.90;;;;;;5045765;28;20049;-68
2024/01/20 06:21:38;;;;;;;44.70;21.88;;;0.00;99.90;;;;;;5030722;28;20041;-68
2024/01/20 06:24:04;;;;;;;42.08;20.17;;;0.00;99.90;;;;;;5030775;28;20393;-68
2024/01/20 06:26:30;;;;;;;38.05;19.20;;;0.10;99.90;;;;;;5031772;28;20111;-67
2024/01/20 06:28:56;;;;;;;36.67;18.92;;;0.10;99.90;;;;;;5045491;28;20445;-67
2024/01/20 06:31:23;;;;;;;40.83;19.20;;;0.20;99.90;;;;;;5030379;28;20037;-68
2024/01/20 06:33:49;;;;;;;45.65;20.77;;;0.10;99.90;;;;;;5030406;28;20393;-68
2024/01/20 06:36:14;;;;;;;48.08;20.90;;;0.20;99.90;;;;;;5012092;28;20041;-67
2024/01/20 06:38:40;;;;;;;50.13;21.42;;;0.10;99.90;;;;;;5030061;28;20056;-68
2024/01/20 06:41:06;;;;;;;41.15;19.83;;;0.20;99.90;;;;;;5045077;28;20451;-67
2024/01/20 06:43:31;;;;;;;41.78;20.45;;;0.10;99.90;;;;;;5045105;28;20043;-68
2024/01/20 06:45:57;;;;;;;50.85;20.85;;;0.10;99.90;;;;;;5030226;28;20037;-67
2024/01/20 06:48:24;;;;;;;46.08;19.73;;;0.20;99.90;;;;;;5045023;28;20051;-68
2024/01/20 06:50:49;;;;;;;48.50;20.45;;;0.10;99.90;;;;;;5028658;28;20166;-67
2024/01/20 06:53:15;;;;;;;44.17;19.30;;;0.10;99.90;;;;;;5030332;28;20564;-68
2024/01/20 06:55:41;;;;;;;39.95;18.85;;;0.20;99.90;;;;;;5045334;28;20496;-67
2024/01/20 06:58:07;;;;;;;40.58;18.77;;;0.10;99.90;;;;;;5029929;28;20061;-68
2024/01/20 07:00:32;;;;;;;44.47;19.00;;;0.10;99.90;;;;;;5045285;28;20538;-68
2024/01/20 07:02:58;;;;;;;41.63;19.33;;;0.20;99.90;;;;;;5029944;28;20041;-67
2024/01/20 07:05:24;;;;;;;38.50;17.90;;;0.10;99.90;;;;;;5029947;28;20112;-67
2024/01/20 07:07:50;;;;;;;43.40;18.38;;;0.10;99.90;;;;;;5030077;28;20052;-67
2024/01/20 07:10:15;;;;;;;39.50;18.33;;;0.10;99.90;;;;;;5029953;28;20120;-66
2024/01/20 07:12:41;;;;;;;42.22;20.17;;;0.10;99.90;;;;;;5029821;28;20045;-67
2024/01/20 07:15:07;;;;;;;40.00;18.70;;;0.10;99.90;;;;;;5030121;28;20053;-67
2024/01/20 07:17:34;;;;;;;44.30;18.40;;;0.00;99.90;;;;;;5044812;28;20045;-67
2024/01/20 07:20:00;;;;;;;41.58;18.55;;;0.00;99.90;;;;;;5027771;28;20104;-67
2024/01/20 07:22:25;;;;;;;43.30;18.80;;;0.00;99.90;;;;;;5044555;28;20081;-67
2024/01/20 07:24:51;;;;;;;40.67;18.75;;;0.00;99.90;;;;;;5044048;28;20064;-67
2024/01/20 07:27:17;;;;;;;39.45;18.20;;;0.10;99.90;;;;;;5043834;28;20045;-67
2024/01/20 07:29:43;;;;;;;46.70;20.27;;;0.00;99.90;;;;;;5027777;28;20060;-67
2024/01/20 07:32:09;;;;;;;40.90;18.30;;;0.00;99.90;;;;;;5022707;28;20156;-67
2024/01/20 07:34:34;;;;;;;41.92;19.38;;;0.10;99.90;;;;;;5010058;28;20041;-67
2024/01/20 07:37:00;;;;;;;47.63;19.40;;;0.00;99.90;;;;;;5009573;28;20038;-68
2024/01/20 07:39:26;;;;;;;46.72;19.15;;;0.10;99.90;;;;;;5009520;28;20115;-67
2024/01/20 07:41:51;;;;;;;41.22;19.63;;;0.00;99.90;;;;;;5008197;28;20037;-67
2024/01/20 07:44:18;;;;;;;41.75;18.48;;;0.00;99.90;;;;;;5007718;28;20124;-67
2024/01/20 07:46:44;;;;;;;42.45;20.60;;;0.00;99.90;;;;;;5009213;28;20116;-68
2024/01/20 07:49:10;;;;;;;45.08;19.70;;;0.00;99.90;;;;;;5007651;28;20347;-68
2024/01/20 07:51:35;;;;;;;42.45;19.42;;;0.00;99.90;;;;;;5009295;28;20042;-68
2024/01/20 07:54:01;;;;;;;45.90;20.38;;;0.00;99.90;;;;;;5009116;28;20077;-68
2024/01/20 07:56:27;;;;;;;42.40;18.80;;;0.00;99.90;;;;;;5007799;28;20108;-68
2024/01/20 07:58:52;;;;;;;41.38;19.10;;;0.20;99.90;;;;;;5008975;28;20053;-68
2024/01/20 08:01:18;;;;;;;42.83;19.15;;;0.10;99.90;;;;;;5007795;28;20119;-68
2024/01/20 08:03:44;;;;;;;45.50;19.45;;;0.10;99.90;;;;;;5007708;28;20050;-68
2024/01/20 08:06:10;;;;;;;40.72;18.95;;;0.20;99.90;;;;;;5008857;28;20048;-68
2024/01/20 08:08:36;;;;;;;40.42;18.35;;;0.10;99.90;;;;;;5009096;28;20132;-68
2024/01/20 08:11:01;;;;;;;45.75;20.10;;;0.10;99.90;;;;;;5008746;28;20037;-68
2024/01/20 08:13:27;;;;;;;40.70;18.00;;;0.10;99.90;;;;;;5008634;28;20050;-67
2024/01/20 08:15:53;;;;;;;44.17;18.45;;;0.20;99.90;;;;;;5008621;28;20398;-67
2024/01/20 08:18:18;;;;;;;50.22;20.80;;;0.30;99.90;;;;;;5008174;28;20411;-67
2024/01/20 08:20:44;;;;;;;45.25;18.98;;;0.30;99.90;;;;;;5008643;28;20113;-68
2024/01/20 08:23:10;;;;;;;52.05;20.67;;;0.20;99.90;;;;;;5008655;28;20145;-68
2024/01/20 08:25:35;;;;;;;40.83;19.95;;;0.50;99.90;;;;;;5008618;28;20107;-68
2024/01/20 08:28:01;;;;;;;45.05;19.38;;;0.50;99.90;;;;;;5008586;28;20046;-67
2024/01/20 08:30:27;;;;;;;43.97;19.70;;;0.40;99.90;;;;;;5027660;28;20045;-68
2024/01/20 08:32:52;;;;;;;44.28;20.15;;;0.50;99.90;;;;;;5028038;28;20049;-67
2024/01/20 08:35:18;;;;;;;40.22;19.02;;;0.50;99.90;;;;;;5026976;28;20051;-68
2024/01/20 08:37:44;;;;;;;38.92;18.70;;;0.50;99.90;;;;;;5026248;28;20068;-67
2024/01/20 08:40:10;;;;;;;38.17;18.10;;;0.50;99.90;;;;;;5043173;28;20092;-67
2024/01/20 08:42:35;;;;;;;41.83;19.02;;;0.50;99.90;;;;;;5028076;28;20037;-67
2024/01/20 08:45:02;;;;;;;42.47;20.63;;;0.60;99.90;;;;;;5028007;28;20034;-68
2024/01/20 08:47:27;;;;;;;38.08;18.77;;;0.60;99.90;;;;;;5027865;28;20061;-68
2024/01/20 08:49:53;;;;;;;49.88;20.25;;;0.70;99.90;;;;;;5043171;28;20063;-68
2024/01/20 08:52:19;;;;;;;35.88;17.13;;;0.80;99.90;;;;;;5043185;28;20065;-69
2024/01/20 08:54:45;;;;;;;43.45;19.13;;;0.80;99.90;;;;;;5043279;28;20049;-68
2024/01/20 08:57:11;;;;;;;41.70;20.10;;;0.80;99.90;;;;;;5043130;28;20079;-68
2024/01/20 08:59:36;;;;;;;44.25;18.88;;;0.80;99.90;;;;;;5043244;28;20057;-68
2024/01/20 09:02:03;;;;;;;36.38;18.63;;;0.80;99.90;;;;;;5027940;28;20045;-68
2024/01/20 09:04:29;;;;;;;36.33;17.60;;;0.90;99.90;;;;;;5042937;28;20060;-68
2024/01/20 09:06:55;;;;;;;42.72;18.98;;;0.90;99.90;;;;;;5028102;28;20432;-68
2024/01/20 09:09:21;;;;;;;42.05;18.10;;;0.90;99.90;;;;;;5027927;28;20132;-68
2024/01/20 09:11:47;;;;;;;41.17;18.98;;;1.00;99.90;;;;;;5027770;28;20041;-68
2024/01/20 09:14:13;;;;;;;40.45;18.23;;;1.00;99.90;;;;;;5027984;28;20049;-68
2024/01/20 09:16:39;;;;;;;42.72;18.75;;;1.00;99.90;;;;;;5027887;28;20053;-68
2024/01/20 09:19:04;;;;;;;39.67;18.13;;;1.00;99.90;;;;;;5042886;28;20050;-67
2024/01/20 09:21:30;;;;;;;41.67;17.80;;;1.10;99.90;;;;;;5026731;28;20120;-67
2024/01/20 09:23:56;;;;;;;39.03;18.60;;;1.10;99.90;;;;;;5027992;28;20042;-67
2024/01/20 09:26:22;;;;;;;44.38;18.25;;;1.10;99.90;;;;;;5028193;28;20094;-67
2024/01/20 09:28:47;;;;;;;37.97;19.02;;;1.20;99.90;;;;;;5027522;28;20053;-67
2024/01/20 09:31:13;;;;;;;36.22;17.17;;;1.10;99.90;;;;;;5042666;28;20434;-67
2024/01/20 09:33:39;;;;;;;39.15;18.23;;;1.20;99.90;;;;;;5027765;28;20160;-67
2024/01/20 09:36:04;;;;;;;34.45;17.92;;;1.20;99.90;;;;;;5027447;28;20052;-67
2024/01/20 09:38:30;;;;;;;35.38;17.17;;;1.30;99.90;;;;;;5027344;28;20095;-67
2024/01/20 09:40:57;;;;;;;35.95;16.73;;;1.30;99.90;;;;;;5009369;28;20041;-67
2024/01/20 09:43:23;;;;;;;36.28;18.33;;;1.30;99.90;;;;;;5007136;28;20034;-67
2024/01/20 09:45:49;;;;;;;36.95;17.52;;;1.20;99.90;;;;;;5007792;28;20127;-66
2024/01/20 09:48:15;;;;;;;32.35;16.48;;;1.30;99.90;;;;;;5009503;28;20046;-67
2024/01/20 09:50:41;;;;;;;38.53;17.20;;;1.40;99.90;;;;;;5010638;28;20041;-66
2024/01/20 09:53:14;;;;;;;35.08;16.50;;;1.40;99.90;;;;;;5027330;28;20069;-67
2024/01/20 09:55:40;;;;;;;;;;;1.40;99.90;;;;;;5012535;28;20041;-67
2024/01/20 09:58:10;;;;;;;33.85;16.38;;;1.50;99.90;;;;;;5026679;28;19936;-66
2024/01/20 10:00:36;;;;;;;38.88;16.90;;;1.50;99.90;;;;;;5010588;28;20374;-67
2024/01/20 10:03:05;;;;;;;33.85;16.50;;;1.50;99.90;;;;;;5010538;28;20557;-67
2024/01/20 10:05:32;;;;;;;35.22;16.50;;;1.50;99.90;;;;;;5012065;28;20061;-67
2024/01/20 10:07:58;;;;;;;33.38;14.80;;;1.50;99.90;;;;;;5027426;28;20041;-67
2024/01/20 10:10:24;;;;;;;32.30;16.05;;;1.60;99.90;;;;;;5012284;28;20490;-67
2024/01/20 10:12:51;;;;;;;36.97;15.40;;;1.60;99.90;;;;;;5011901;28;20054;-67
2024/01/20 10:15:26;;;;;;;38.95;15.38;;;1.60;99.90;;;;;;5011619;28;20125;-67
2024/01/20 10:17:52;;;;;;;36.03;15.75;;;1.70;99.90;;;;;;5012185;28;20080;-67
2024/01/20 10:20:23;;;;;;;37.80;15.90;;;1.70;99.90;;;;;;5010609;28;20168;-68
2024/01/20 10:22:49;;;;;;;35.42;14.70;;;1.70;99.90;;;;;;5027456;28;20069;-68
2024/01/20 10:25:19;;;;;;;33.22;15.40;;;1.70;99.90;;;;;;5012289;28;20061;-68
2024/01/20 10:27:49;;;;;;;30.80;13.85;;;1.80;99.90;;;;;;5011540;28;20042;-68
2024/01/20 10:30:16;;;;;;;32.50;14.48;;;1.70;99.90;;;;;;5010847;28;20431;-68
2024/01/20 10:32:42;;;;;;;28.45;14.52;;;1.80;99.90;;;;;;5027050;28;20053;-68
2024/01/20 10:35:08;;;;;;;33.47;15.40;;;1.80;99.90;;;;;;5010642;28;20050;-68
2024/01/20 10:37:37;;;;;;;34.80;14.77;;;1.80;99.90;;;;;;5011711;28;20125;-68
2024/01/20 10:40:05;;;;;;;35.15;16.05;;;1.80;99.90;;;;;;5011335;28;20053;-68
2024/01/20 10:42:33;;;;;;;32.83;16.90;;;1.90;99.90;;;;;;5026254;28;20191;-68
2024/01/20 10:45:09;;;;;;;34.58;15.88;;;1.90;99.90;;;;;;5011355;28;20077;-68
2024/01/20 10:47:36;;;;;;;35.30;15.65;;;1.90;99.90;;;;;;5011717;28;20383;-69
2024/01/20 10:50:09;;;;;;;36.92;15.95;;;1.90;99.90;;;;;;5026662;28;20058;-68
2024/01/20 10:52:36;;;;;;;31.95;15.32;;;1.90;99.90;;;;;;5026152;28;20050;-68
2024/01/20 10:55:03;;;;;;;30.67;14.27;;;2.00;99.90;;;;;;5011415;28;20045;-68
2024/01/20 10:57:29;;;;;;;31.20;15.38;;;2.00;99.90;;;;;;5011035;28;20061;-68
2024/01/20 10:59:57;;;;;;;29.40;14.73;;;2.00;99.90;;;;;;4992510;28;20054;-68
2024/01/20 11:02:24;;;;;;;33.22;14.73;;;2.10;99.90;;;;;;5011113;28;20494;-68
2024/01/20 11:04:49;;;;;;;32.95;15.25;;;2.10;99.90;;;;;;5009630;28;20068;-68
2024/01/20 11:07:23;;;;;;;29.45;13.98;;;2.10;99.90;;;;;;5010792;28;20034;-68
2024/01/20 11:09:56;;;;;;;30.80;15.13;;;2.10;99.90;;;;;;5026008;28;20426;-68
2024/01/20 11:12:23;;;;;;;29.55;13.70;;;2.10;99.90;;;;;;5025776;28;20152;-68
2024/01/20 11:14:57;;;;;;;31.10;13.98;;;2.10;99.90;;;;;;5011011;28;20053;-68
2024/01/20 11:17:23;;;;;;;27.70;13.35;;;2.10;99.90;;;;;;5026156;28;20284;-68
2024/01/20 11:19:53;;;;;;;29.98;13.80;;;2.20;99.90;;;;;;5025502;28;20061;-68
2024/01/20 11:22:38;;;;;;;34.53;15.15;;;2.20;99.90;;;;;;5010691;28;20449;-68
2024/01/20 11:25:05;;;;;;;36.75;14.43;;;2.20;99.90;;;;;;5009590;28;20421;-68
2024/01/20 11:27:42;;;;;;;27.95;14.88;;;2.20;99.90;;;;;;5025533;28;20054;-68
2024/01/20 11:30:09;;;;;;;24.48;13.43;;;2.20;99.90;;;;;;5025639;28;20041;-68
2024/01/20 11:32:35;;;;;;;30.13;14.18;;;2.30;99.90;;;;;;5010648;28;20042;-70
2024/01/20 11:35:03;;;;;;;33.17;14.32;;;2.50;99.90;;;;;;5010247;28;20689;-70
2024/01/20 11:37:31;;;;;;;27.42;13.57;;;2.40;99.90;;;;;;5010475;28;20504;-69
2024/01/20 11:40:07;;;;;;;35.10;14.55;;;2.30;99.90;;;;;;5010367;28;20077;-69
2024/01/20 11:42:36;;;;;;;31.38;13.65;;;2.40;99.90;;;;;;5010162;28;20050;-69
2024/01/20 11:45:04;;;;;;;28.35;13.32;;;2.30;99.90;;;;;;5010256;28;20049;-68
2024/01/20 11:47:31;;;;;;;32.58;13.73;;;2.40;99.90;;;;;;5025319;28;20137;-69
2024/01/20 11:49:57;;;;;;;30.00;14.32;;;2.40;99.90;;;;;;5010220;28;20041;-69
2024/01/20 11:52:26;;;;;;;28.20;14.65;;;2.40;99.90;;;;;;5010331;28;20046;-69
2024/01/20 11:54:52;;;;;;;32.20;15.18;;;2.40;99.90;;;;;;5024823;28;20038;-70
2024/01/20 11:57:29;;;;;;;26.05;13.27;;;2.40;99.90;;;;;;5009495;28;20046;-69
2024/01/20 11:59:57;;;;;;;28.88;14.38;;;2.40;99.90;;;;;;5010310;28;20402;-68
2024/01/20 12:02:24;;;;;;;30.67;13.68;;;2.40;99.90;;;;;;5008422;28;20561;-68
2024/01/20 12:04:49;;;;;;;32.35;14.15;;;2.40;99.90;;;;;;5024540;28;20125;-68
2024/01/20 12:07:16;;;;;;;29.10;15.13;;;2.40;99.90;;;;;;5009446;28;20112;-68
2024/01/20 12:09:46;;;;;;;33.63;15.05;;;2.40;99.90;;;;;;5024112;28;20044;-69
2024/01/20 12:12:13;;;;;;;33.95;13.73;;;2.50;99.90;;;;;;5024933;28;20042;-69
2024/01/20 12:14:41;;;;;;;32.10;14.45;;;2.40;99.90;;;;;;5009532;28;20053;-69
2024/01/20 12:17:07;;;;;;;34.50;13.60;;;2.50;99.90;;;;;;5009334;28;20037;-69
2024/01/20 12:19:34;;;;;;;30.17;13.60;;;2.40;99.90;;;;;;5005386;28;20508;-69
2024/01/20 12:22:00;;;;;;;31.45;13.75;;;2.40;99.90;;;;;;5009906;28;20081;-67
2024/01/20 12:24:26;;;;;;;31.25;13.85;;;2.40;99.90;;;;;;5009406;28;20073;-66
2024/01/20 12:26:52;;;;;;;27.95;12.40;;;2.40;99.90;;;;;;5009372;28;20025;-67
2024/01/20 12:29:18;;;;;;;27.00;12.93;;;2.40;99.90;;;;;;5006787;28;20088;-67
2024/01/20 12:31:44;;;;;;;32.28;14.13;;;2.40;99.90;;;;;;4998002;28;20050;-67
2024/01/20 12:34:09;;;;;;;30.40;15.70;;;2.40;99.90;;;;;;4988086;28;20050;-68